1983 PREMA (1983056S11193)


On this page: IBTrACS data - Map and Plots - Positions - Intensities - Original source data

Summary

Start Feb 25
End Mar 6
Basin SP
LMI 50 kt
Sources jtwc_sh
wellington
td9636
neumann
In WMO? Yes
Related storms 1983059S13206
Previous storm 1983 OSCAR (SP)
Previous in basin 1983 OSCAR (SP)
Concurrent storms 1983 ELINOR (SP)
1983 NISHA (SP)
1983 OSCAR (SP)
1983 PREMA (SP)
1983 KEN (SI)
1983 PREMA (SP)
Next in basin 1983 PREMA (SP)
Next storm 1983 KEN (SI)

top of page IBTrACS Data: File Access

top of page HURSAT Data: File Access

Image of storm

top of page Plots:

Map of storm track will not appear if FTP is down
Time series of cyclone Maximum Sustained Wind will not appear if FTP is down
Time series of cyclone Minimum Central Pressure will not appear if FTP is down

top of page Track Data:Position

jtwc_sh wellington td9636 neumann
Date Lat Lon Lat Lon Lat Lon Lat Lon
1983-02-25 00:00:00 -11.1 -167.4 -11.1 -167.4
1983-02-25 06:00:00 -11.3 -166.3 -11.3 -166.3
1983-02-25 12:00:00 -11.6 -165.4 -12.0 -164.0 -11.6 -165.4
1983-02-25 18:00:00 -11.7 -164.5 -12.2 -163.2 -11.7 -164.5
1983-02-26 00:00:00 -11.9 -163.6 -12.4 -162.4 -11.9 -163.6
1983-02-26 06:00:00 -12.0 -162.3 -12.5 -161.5 -12.0 -164.0 -12.0 -162.3
1983-02-26 12:00:00 -12.3 -161.1 -12.6 -160.5 -12.1 -163.0 -12.3 -161.1
1983-02-26 18:00:00 -12.5 -159.8 -12.6 -159.4 -12.3 -160.5 -12.5 -159.8
1983-02-27 00:00:00 -12.8 -158.6 -12.7 -158.2 -12.4 -158.0 -12.8 -158.6
1983-02-27 06:00:00 -13.0 -157.7 -12.8 -156.9 -12.4 -157.2 -13.0 -157.7
1983-02-27 12:00:00 -13.3 -157.1 -13.1 -155.6 -12.5 -157.0 -13.3 -157.1
1983-02-27 18:00:00 -13.5 -156.5 -12.9 -156.6 -13.5 -156.5
1983-02-28 00:00:00 -13.8 -155.9 -13.5 -156.0 -13.8 -155.9
1983-02-28 06:00:00 -14.2 -155.1 -14.2 -155.1
1983-02-28 12:00:00 -14.9 -154.2 -14.9 -154.2
1983-02-28 18:00:00 -15.6 -153.2 -15.6 -153.2
1983-03-01 00:00:00 -16.5 -152.2 -16.5 -152.2
1983-03-01 06:00:00 -17.4 -151.0 -17.8 -149.1 -17.4 -151.0
1983-03-01 12:00:00 -18.3 -149.9 -18.1 -149.0 -18.3 -149.9
1983-03-01 18:00:00 -19.1 -149.1 -18.5 -148.9 -19.1 -149.1
1983-03-02 00:00:00 -20.0 -148.7 -19.0 -149.0 -20.0 -148.7
1983-03-02 06:00:00 -19.4 -149.4
1983-03-02 12:00:00 -20.0 -149.9
1983-03-02 18:00:00 -21.2 -150.2
1983-03-03 00:00:00 -22.5 -150.3
jtwc_sh wellington td9636 neumann
1983-03-03 06:00:00 -23.4 -150.3
1983-03-03 12:00:00 -24.0 -150.3
1983-03-03 18:00:00 -24.3 -150.3
1983-03-04 00:00:00 -24.4 -150.4
1983-03-04 06:00:00 -24.7 -150.4
1983-03-04 12:00:00 -25.0 -150.5
1983-03-04 18:00:00 -25.2 -150.5
1983-03-05 00:00:00 -25.4 -150.6
1983-03-05 06:00:00 -25.6 -150.7
1983-03-05 12:00:00 -25.7 -150.8
1983-03-05 18:00:00 -25.8 -150.9
1983-03-06 00:00:00 -26.0 -151.0

top of pageTrack Data:Intensity

jtwc_sh wellington td9636 neumann
Date Wind Pres Wind Pres Wind Pres Wind Pres
1983-02-25 00:00:00 20. 20.
1983-02-25 06:00:00 22. 20.
1983-02-25 12:00:00 25. 30. 997. 25.
1983-02-25 18:00:00 27. 30. 997. 25.
1983-02-26 00:00:00 30. 40. 990. 30.
1983-02-26 06:00:00 32. 40. 990. 30.
1983-02-26 12:00:00 35. 45. 987. 35.
1983-02-26 18:00:00 37. 45. 987. 50.
1983-02-27 00:00:00 40. 45. 987. 40. 994.
1983-02-27 06:00:00 41. 45. 987. 45.
1983-02-27 12:00:00 40. 40. 990. 40.
1983-02-27 18:00:00 37. 35.
1983-02-28 00:00:00 35. 35.
1983-02-28 06:00:00 32. 30.
1983-02-28 12:00:00 30. 30.
1983-02-28 18:00:00 27. 25.
1983-03-01 00:00:00 25. 25.
1983-03-01 06:00:00 24. 30. 997. 20.
1983-03-01 12:00:00 24. 30. 997. 20.
1983-03-01 18:00:00 23. 30. 997. 20.
1983-03-02 00:00:00 20. 30. 997. 20.
1983-03-02 06:00:00 30. 997.
1983-03-02 12:00:00 30. 997.
1983-03-02 18:00:00 30. 997.
1983-03-03 00:00:00 30. 997.
jtwc_sh wellington td9636 neumann
1983-03-03 06:00:00 30. 997.
1983-03-03 12:00:00 30. 997.
1983-03-03 18:00:00 30. 997.
1983-03-04 00:00:00 30. 997.
1983-03-04 06:00:00 30. 997.
1983-03-04 12:00:00 30. 997.
1983-03-04 18:00:00 30. 997.
1983-03-05 00:00:00 30. 997.
1983-03-05 06:00:00 30. 997.
1983-03-05 12:00:00 30. 997.
1983-03-05 18:00:00 30. 997.
1983-03-06 00:00:00 30. 997.

top of page Links to source data

Source Source file Format
jtwc_sh bsh151983.txt ATCF
wellington TC_BT_1967_2006.csv:Line=1934:PREMA Text table
td9636 cons_worldwide_trop_cyclone_18710101-19891231-006:Line=11691 TD 9636
neumann tracks.sh:Storm=671:PREMA:BSH1583:JTWC HURDAT